createdAt,value
2023-05-01T00:01:40.236Z,10.59
2023-05-01T00:04:13.400Z,10.74
2023-05-01T00:06:47.857Z,10.63
2023-05-01T00:09:20.827Z,10.66
2023-05-01T00:11:53.675Z,10.44
2023-05-01T00:14:26.534Z,10.62
2023-05-01T00:16:59.581Z,10.80
2023-05-01T00:19:32.770Z,10.58
2023-05-01T00:22:06.986Z,10.62
2023-05-01T00:24:39.846Z,10.56
2023-05-01T00:27:12.710Z,10.58
2023-05-01T00:29:45.613Z,10.50
2023-05-01T00:32:18.715Z,10.44
2023-05-01T00:34:51.656Z,10.35
2023-05-01T00:37:26.147Z,10.22
2023-05-01T00:39:59.425Z,10.14
2023-05-01T00:42:36.017Z,10.14
2023-05-01T00:45:10.000Z,10.27
2023-05-01T00:47:43.059Z,10.28
2023-05-01T00:50:16.028Z,10.23
2023-05-01T00:52:50.214Z,10.01
2023-05-01T00:55:23.272Z,10.07
2023-05-01T00:57:57.356Z,10.08
2023-05-01T01:00:31.001Z,10.03
2023-05-01T01:03:05.810Z,9.82
2023-05-01T01:05:43.970Z,9.97
2023-05-01T01:08:23.605Z,9.84
2023-05-01T01:11:02.544Z,9.71
2023-05-01T01:13:44.751Z,9.60
2023-05-01T01:16:24.469Z,9.54
2023-05-01T01:19:02.877Z,9.40
2023-05-01T01:21:40.579Z,9.25
2023-05-01T01:24:33.884Z,9.28
2023-05-01T01:27:29.914Z,9.32
2023-05-01T01:30:29.370Z,9.25
2023-05-01T01:33:30.114Z,8.90
2023-05-01T01:36:09.138Z,8.84
2023-05-01T01:38:46.765Z,8.77
2023-05-01T01:41:25.350Z,8.89
2023-05-01T01:44:04.907Z,8.95
2023-05-01T01:46:40.754Z,8.97
2023-05-01T01:49:20.991Z,8.90
2023-05-01T01:51:58.000Z,8.81
2023-05-01T01:54:34.465Z,8.65
2023-05-01T01:57:09.156Z,8.77
2023-05-01T01:59:43.251Z,8.78
2023-05-01T02:02:18.450Z,8.83
2023-05-01T02:04:53.290Z,8.78
2023-05-01T02:07:30.571Z,8.54
2023-05-01T02:10:05.904Z,8.50
2023-05-01T02:12:39.705Z,8.56
2023-05-01T02:15:13.152Z,8.57
2023-05-01T02:17:46.541Z,8.59
2023-05-01T02:20:21.236Z,8.60
2023-05-01T02:22:55.961Z,8.40
2023-05-01T02:25:32.719Z,8.49
2023-05-01T02:28:13.488Z,8.44
2023-05-01T02:30:47.206Z,8.42
2023-05-01T02:33:20.154Z,8.38
2023-05-01T02:35:53.311Z,8.32
2023-05-01T02:38:28.461Z,8.47
2023-05-01T02:41:01.872Z,8.43
2023-05-01T02:43:36.287Z,8.49
2023-05-01T02:46:11.693Z,8.58
2023-05-01T02:48:46.112Z,8.51
2023-05-01T02:51:20.706Z,8.41
2023-05-01T02:53:56.465Z,8.38
2023-05-01T02:56:30.078Z,8.26
2023-05-01T02:59:03.005Z,8.48
2023-05-01T03:01:36.916Z,8.56
2023-05-01T03:04:09.812Z,8.66
2023-05-01T03:06:44.337Z,8.83
2023-05-01T03:09:19.142Z,8.87
2023-05-01T03:11:52.079Z,8.85
2023-05-01T03:14:25.125Z,8.86
2023-05-01T03:16:58.281Z,8.83
2023-05-01T03:19:31.623Z,8.87
2023-05-01T03:22:04.488Z,8.87
2023-05-01T03:24:38.911Z,8.86
2023-05-01T03:27:11.989Z,8.82
2023-05-01T03:29:45.120Z,8.93
2023-05-01T03:32:18.330Z,8.84
2023-05-01T03:34:52.958Z,8.85
2023-05-01T03:37:27.092Z,8.90
2023-05-01T03:40:01.380Z,8.89
2023-05-01T03:43:09.364Z,8.85
2023-05-01T03:45:44.724Z,8.76
2023-05-01T03:48:18.270Z,8.68
2023-05-01T03:50:51.604Z,8.71
2023-05-01T03:53:25.786Z,8.86
2023-05-01T03:56:00.134Z,8.81
2023-05-01T03:58:32.967Z,8.82
2023-05-01T04:01:05.984Z,8.74
2023-05-01T04:03:41.208Z,8.75
2023-05-01T04:06:14.353Z,8.78
2023-05-01T04:08:47.894Z,8.83
2023-05-01T04:11:22.089Z,8.75
2023-05-01T04:13:55.062Z,8.74
2023-05-01T04:16:27.980Z,8.74
2023-05-01T04:19:01.423Z,8.76
2023-05-01T04:21:35.892Z,8.82
2023-05-01T04:24:08.828Z,8.77
2023-05-01T04:26:43.133Z,8.80
2023-05-01T04:29:16.305Z,8.85
2023-05-01T04:31:49.259Z,8.94
2023-05-01T04:34:22.136Z,8.98
2023-05-01T04:36:55.164Z,8.93
2023-05-01T04:39:28.515Z,8.89
2023-05-01T04:42:04.582Z,8.83
2023-05-01T04:44:37.420Z,8.88
2023-05-01T04:47:10.351Z,8.88
2023-05-01T04:49:43.276Z,8.91
2023-05-01T04:52:16.800Z,8.91
2023-05-01T04:55:00.760Z,8.94
2023-05-01T04:57:37.544Z,8.89
2023-05-01T05:00:13.909Z,8.91
2023-05-01T05:02:56.447Z,8.96
2023-05-01T05:05:29.802Z,8.93
2023-05-01T05:08:02.995Z,8.94
2023-05-01T05:10:41.495Z,8.94
2023-05-01T05:13:34.706Z,8.96
2023-05-01T05:16:11.041Z,8.87
2023-05-01T05:18:44.314Z,9.02
2023-05-01T05:21:17.136Z,9.14
2023-05-01T05:23:57.256Z,9.12
2023-05-01T05:26:30.035Z,9.17
2023-05-01T05:29:09.422Z,9.22
2023-05-01T05:31:42.322Z,9.30
2023-05-01T05:34:15.461Z,9.16
2023-05-01T05:36:48.396Z,9.28
2023-05-01T05:39:23.842Z,9.44
2023-05-01T05:41:57.093Z,9.59
2023-05-01T05:44:32.981Z,9.63
2023-05-01T05:47:06.320Z,9.62
2023-05-01T05:49:39.645Z,9.73
2023-05-01T05:52:12.490Z,9.71
2023-05-01T05:54:46.167Z,9.78
2023-05-01T05:57:19.021Z,10.00
2023-05-01T05:59:57.593Z,10.12
2023-05-01T06:02:31.907Z,10.19
2023-05-01T06:05:07.448Z,10.30
2023-05-01T06:07:40.487Z,10.35
2023-05-01T06:10:13.418Z,10.43
2023-05-01T06:12:48.030Z,10.52
2023-05-01T06:15:36.482Z,10.53
2023-05-01T06:18:10.162Z,10.71
2023-05-01T06:20:43.029Z,10.93
2023-05-01T06:23:16.210Z,11.12
2023-05-01T06:26:28.056Z,11.02
2023-05-01T06:29:01.084Z,11.01
2023-05-01T06:31:35.994Z,11.11
2023-05-01T06:34:09.197Z,11.17
2023-05-01T06:36:51.397Z,11.24
2023-05-01T06:39:24.354Z,11.23
2023-05-01T06:41:57.155Z,11.42
2023-05-01T06:44:38.011Z,11.65
2023-05-01T06:47:12.986Z,11.64
2023-05-01T06:49:46.568Z,11.84
2023-05-01T06:52:19.424Z,11.57
2023-05-01T06:54:52.351Z,11.70
2023-05-01T06:57:25.796Z,11.76
2023-05-01T06:59:58.796Z,11.55
2023-05-01T07:02:33.321Z,12.05
2023-05-01T07:05:07.345Z,12.16
2023-05-01T07:07:44.594Z,12.32
2023-05-01T07:10:23.282Z,12.20
2023-05-01T07:12:56.583Z,12.51
2023-05-01T07:15:29.750Z,12.60
2023-05-01T07:18:05.941Z,12.57
2023-05-01T07:20:39.267Z,13.06
2023-05-01T07:23:12.277Z,13.03
2023-05-01T07:25:46.332Z,12.77
2023-05-01T07:28:20.323Z,12.94
2023-05-01T07:30:53.220Z,12.91
2023-05-01T07:33:27.409Z,13.28
2023-05-01T07:36:00.121Z,13.32
2023-05-01T07:38:33.174Z,13.39
2023-05-01T07:41:06.183Z,13.73
2023-05-01T07:43:38.923Z,14.14
2023-05-01T07:46:12.583Z,14.03
2023-05-01T07:48:46.748Z,13.94
2023-05-01T07:51:19.749Z,13.88
2023-05-01T07:53:52.946Z,14.12
2023-05-01T07:56:25.821Z,14.08
2023-05-01T07:58:58.558Z,14.42
2023-05-01T08:01:31.440Z,14.59
2023-05-01T08:04:06.136Z,14.65
2023-05-01T08:06:39.346Z,14.69
2023-05-01T08:09:12.169Z,14.60
2023-05-01T08:11:44.955Z,14.40
2023-05-01T08:14:19.275Z,14.65
2023-05-01T08:16:55.180Z,14.92
2023-05-01T08:19:29.590Z,15.35
2023-05-01T08:22:02.843Z,15.51
2023-05-01T08:24:35.632Z,15.64
2023-05-01T08:27:08.858Z,15.93
2023-05-01T08:29:41.613Z,16.30
2023-05-01T08:32:15.355Z,16.31
2023-05-01T08:34:49.535Z,15.95
2023-05-01T08:37:22.323Z,16.32
2023-05-01T08:39:55.573Z,16.55
2023-05-01T08:42:32.146Z,17.05
2023-05-01T08:45:08.478Z,17.01
2023-05-01T08:47:42.756Z,17.23
2023-05-01T08:50:18.381Z,17.38
2023-05-01T08:52:54.111Z,17.46
2023-05-01T08:55:29.156Z,17.70
2023-05-01T08:58:03.355Z,17.71
2023-05-01T09:00:38.068Z,18.01
2023-05-01T09:03:12.809Z,18.18
2023-05-01T09:05:47.241Z,18.76
2023-05-01T09:08:20.670Z,18.92
2023-05-01T09:10:55.072Z,18.98
2023-05-01T09:13:27.898Z,18.55
2023-05-01T09:16:01.623Z,17.97
2023-05-01T09:18:35.608Z,18.08
2023-05-01T09:21:10.373Z,18.19
2023-05-01T09:23:43.238Z,18.33
2023-05-01T09:26:16.178Z,18.89
2023-05-01T09:28:51.682Z,20.13
2023-05-01T09:31:28.810Z,20.03
2023-05-01T09:34:02.788Z,19.70
2023-05-01T09:36:37.446Z,20.04
2023-05-01T09:39:23.190Z,20.82
2023-05-01T09:41:56.549Z,20.81
2023-05-01T09:44:29.607Z,21.37
2023-05-01T09:47:03.889Z,21.64
2023-05-01T09:49:46.478Z,21.95
2023-05-01T09:52:20.946Z,22.29
2023-05-01T09:55:12.936Z,22.16
2023-05-01T09:57:47.626Z,21.69
2023-05-01T10:00:22.135Z,21.89
2023-05-01T10:02:55.473Z,21.26
2023-05-01T10:05:28.603Z,21.21
2023-05-01T10:08:04.836Z,20.38
2023-05-01T10:10:38.042Z,21.95
2023-05-01T10:13:15.338Z,22.69
2023-05-01T10:15:50.121Z,22.36
2023-05-01T10:18:24.003Z,22.92
2023-05-01T10:20:57.318Z,23.45
2023-05-01T10:23:31.454Z,23.87
2023-05-01T10:26:07.191Z,23.41
2023-05-01T10:28:42.066Z,24.04
2023-05-01T10:31:15.467Z,24.20
2023-05-01T10:33:48.864Z,24.78
2023-05-01T10:36:26.529Z,23.47
2023-05-01T10:39:00.738Z,24.30
2023-05-01T10:42:03.432Z,23.89
2023-05-01T10:44:36.386Z,24.21
2023-05-01T10:47:46.454Z,24.88
2023-05-01T10:50:19.260Z,25.47
2023-05-01T10:53:17.492Z,25.38
2023-05-01T10:55:51.760Z,24.69
2023-05-01T10:58:56.320Z,24.49
2023-05-01T11:01:34.171Z,25.76
2023-05-01T11:04:09.080Z,25.67
2023-05-01T11:07:19.064Z,25.78
2023-05-01T11:09:55.644Z,25.43
2023-05-01T11:12:53.735Z,25.41
2023-05-01T11:15:31.453Z,25.45
2023-05-01T11:18:05.947Z,25.59
2023-05-01T11:20:52.032Z,25.65
2023-05-01T11:23:27.394Z,25.60
2023-05-01T11:26:08.043Z,25.80
2023-05-01T11:28:42.324Z,26.71
2023-05-01T11:31:18.667Z,25.20
2023-05-01T11:33:51.662Z,26.32
2023-05-01T11:36:24.823Z,26.55
2023-05-01T11:39:00.598Z,27.15
2023-05-01T11:41:33.371Z,27.28
2023-05-01T11:44:06.186Z,25.81
2023-05-01T11:46:39.173Z,26.33
2023-05-01T11:49:12.423Z,25.91
2023-05-01T11:51:45.260Z,27.13
2023-05-01T11:54:19.555Z,26.02
2023-05-01T11:56:59.765Z,25.80
2023-05-01T11:59:32.650Z,26.28
2023-05-01T12:02:05.627Z,26.06
2023-05-01T12:04:38.756Z,25.81
2023-05-01T12:07:21.558Z,24.77
2023-05-01T12:09:55.962Z,25.52
2023-05-01T12:12:28.883Z,26.19
2023-05-01T12:15:01.789Z,25.60
2023-05-01T12:17:34.674Z,23.76
2023-05-01T12:20:09.248Z,23.75
2023-05-01T12:22:51.700Z,25.46
2023-05-01T12:25:31.932Z,25.47
2023-05-01T12:28:09.802Z,25.58
2023-05-01T12:30:46.320Z,24.65
2023-05-01T12:33:22.927Z,25.68
2023-05-01T12:35:55.724Z,25.14
2023-05-01T12:38:28.921Z,23.54
2023-05-01T12:41:09.352Z,23.49
2023-05-01T12:43:44.211Z,23.96
2023-05-01T12:46:17.654Z,23.64
2023-05-01T12:48:53.048Z,23.42
2023-05-01T12:51:27.451Z,22.89
2023-05-01T12:54:00.665Z,23.12
2023-05-01T12:56:34.903Z,21.67
2023-05-01T12:59:07.717Z,22.16
2023-05-01T13:01:41.142Z,22.19
2023-05-01T13:04:22.088Z,22.41
2023-05-01T13:07:11.332Z,21.03
2023-05-01T13:09:53.170Z,20.83
2023-05-01T13:12:31.038Z,20.50
2023-05-01T13:15:04.275Z,20.74
2023-05-01T13:17:38.400Z,20.72
2023-05-01T13:20:12.373Z,21.14
2023-05-01T13:22:46.254Z,21.45
2023-05-01T13:25:20.510Z,21.40
2023-05-01T13:27:55.114Z,21.34
2023-05-01T13:30:33.604Z,21.35
2023-05-01T13:33:07.745Z,21.26
2023-05-01T13:35:41.018Z,20.87
2023-05-01T13:38:14.754Z,20.69
2023-05-01T13:40:50.551Z,21.02
2023-05-01T13:43:25.251Z,20.84
2023-05-01T13:46:00.230Z,21.61
2023-05-01T13:48:35.950Z,23.40
2023-05-01T13:51:09.294Z,23.91
2023-05-01T13:53:43.202Z,23.96
2023-05-01T13:56:16.201Z,24.10
2023-05-01T13:58:51.034Z,23.99
2023-05-01T14:01:24.541Z,23.97
2023-05-01T14:04:00.151Z,24.34
2023-05-01T14:06:33.349Z,24.19
2023-05-01T14:09:06.338Z,23.66
2023-05-01T14:11:46.460Z,24.18
2023-05-01T14:14:20.840Z,23.75
2023-05-01T14:16:54.025Z,21.94
2023-05-01T14:19:27.236Z,22.79
2023-05-01T14:22:00.585Z,22.50
2023-05-01T14:24:36.838Z,22.53
2023-05-01T14:27:10.558Z,22.50
2023-05-01T14:29:44.906Z,22.10
2023-05-01T14:32:17.740Z,21.49
2023-05-01T14:34:50.690Z,21.23
2023-05-01T14:37:24.101Z,21.45
2023-05-01T14:39:57.096Z,21.14
2023-05-01T14:42:31.407Z,20.70
2023-05-01T14:45:06.537Z,21.08
2023-05-01T14:47:46.018Z,21.27
2023-05-01T14:50:22.904Z,21.73
2023-05-01T14:52:58.852Z,21.88
2023-05-01T14:55:34.592Z,22.12
2023-05-01T14:58:07.566Z,22.04
2023-05-01T15:00:41.778Z,22.01
2023-05-01T15:03:14.605Z,21.73
2023-05-01T15:05:47.590Z,22.00
2023-05-01T15:08:24.232Z,20.95
2023-05-01T15:10:57.064Z,20.64
2023-05-01T15:13:31.716Z,20.76
2023-05-01T15:16:08.301Z,21.18
2023-05-01T15:18:41.781Z,20.81
2023-05-01T15:21:14.903Z,20.85
2023-05-01T15:23:47.920Z,21.23
2023-05-01T15:26:20.980Z,21.49
2023-05-01T15:28:54.270Z,21.41
2023-05-01T15:31:28.444Z,21.38
2023-05-01T15:34:01.705Z,20.20
2023-05-01T15:36:35.139Z,19.05
2023-05-01T15:39:11.665Z,18.75
2023-05-01T15:41:44.730Z,18.25
2023-05-01T15:44:17.549Z,17.52
2023-05-01T15:46:52.869Z,16.84
2023-05-01T15:49:25.802Z,17.29
2023-05-01T15:51:58.562Z,17.34
2023-05-01T15:54:31.359Z,18.40
2023-05-01T15:57:04.528Z,17.74
2023-05-01T15:59:40.034Z,18.29
2023-05-01T16:02:15.394Z,18.02
2023-05-01T16:04:48.818Z,17.16
2023-05-01T16:07:22.038Z,17.50
2023-05-01T16:09:56.971Z,17.53
2023-05-01T16:12:30.282Z,17.90
2023-05-01T16:15:03.638Z,18.11
2023-05-01T16:17:45.633Z,18.25
2023-05-01T16:20:18.455Z,18.18
2023-05-01T16:22:51.896Z,18.08
2023-05-01T16:25:24.669Z,18.03
2023-05-01T16:27:57.588Z,17.90
2023-05-01T16:30:30.397Z,18.22
2023-05-01T16:33:05.077Z,18.02
2023-05-01T16:35:38.466Z,17.67
2023-05-01T16:38:11.345Z,17.90
2023-05-01T16:40:45.076Z,17.76
2023-05-01T16:43:17.966Z,17.31
2023-05-01T16:45:53.886Z,17.06
2023-05-01T16:48:28.988Z,17.21
2023-05-01T16:51:01.854Z,17.47
2023-05-01T16:53:35.667Z,18.29
2023-05-01T16:56:10.157Z,18.98
2023-05-01T16:58:43.817Z,19.40
2023-05-01T17:01:17.070Z,18.89
2023-05-01T17:03:51.340Z,18.96
2023-05-01T17:06:24.441Z,18.86
2023-05-01T17:08:57.379Z,18.80
2023-05-01T17:11:31.941Z,18.82
2023-05-01T17:14:05.128Z,18.72
2023-05-01T17:16:38.224Z,18.27
2023-05-01T17:19:13.740Z,17.97
2023-05-01T17:21:46.708Z,17.90
2023-05-01T17:24:20.098Z,17.67
2023-05-01T17:26:53.286Z,17.65
2023-05-01T17:29:28.047Z,17.66
2023-05-01T17:32:02.307Z,17.69
2023-05-01T17:34:36.660Z,17.47
2023-05-01T17:37:10.042Z,17.18
2023-05-01T17:39:42.994Z,17.13
2023-05-01T17:42:15.917Z,17.03
2023-05-01T17:44:48.754Z,16.78
2023-05-01T17:47:23.214Z,16.88
2023-05-01T17:50:00.859Z,16.92
2023-05-01T17:52:34.264Z,17.03
2023-05-01T17:55:08.049Z,16.90
2023-05-01T17:57:41.156Z,16.73
2023-05-01T18:00:16.112Z,16.19
2023-05-01T18:02:49.135Z,16.67
2023-05-01T18:05:23.748Z,16.71
2023-05-01T18:07:56.974Z,16.55
2023-05-01T18:10:31.109Z,16.37
2023-05-01T18:13:04.080Z,15.91
2023-05-01T18:15:36.881Z,15.96
2023-05-01T18:18:09.984Z,16.15
2023-05-01T18:20:44.208Z,16.28
2023-05-01T18:23:18.110Z,16.20
2023-05-01T18:25:50.998Z,16.19
2023-05-01T18:28:23.992Z,16.22
2023-05-01T18:30:57.397Z,14.98
2023-05-01T18:33:30.205Z,15.09
2023-05-01T18:36:05.115Z,15.39
2023-05-01T18:38:37.899Z,15.43
2023-05-01T18:41:10.769Z,15.31
2023-05-01T18:43:43.731Z,15.59
2023-05-01T18:46:18.590Z,15.35
2023-05-01T18:48:52.325Z,15.01
2023-05-01T18:51:26.684Z,15.12
2023-05-01T18:54:02.067Z,15.23
2023-05-01T18:56:36.497Z,15.38
2023-05-01T18:59:09.726Z,15.10
2023-05-01T19:01:43.018Z,15.03
2023-05-01T19:04:16.940Z,15.23
2023-05-01T19:06:51.427Z,15.19
2023-05-01T19:09:24.627Z,15.07
2023-05-01T19:11:57.577Z,15.10
2023-05-01T19:14:30.410Z,14.89
2023-05-01T19:17:03.552Z,15.10
2023-05-01T19:19:36.866Z,15.15
2023-05-01T19:22:11.472Z,15.24
2023-05-01T19:24:44.235Z,14.99
2023-05-01T19:27:17.991Z,14.85
2023-05-01T19:29:52.448Z,14.72
2023-05-01T19:32:25.629Z,14.55
2023-05-01T19:34:58.537Z,14.50
2023-05-01T19:37:32.983Z,14.34
2023-05-01T19:40:08.832Z,14.38
2023-05-01T19:42:41.641Z,14.34
2023-05-01T19:45:16.351Z,14.30
2023-05-01T19:47:50.781Z,14.14
2023-05-01T19:50:23.617Z,14.25
2023-05-01T19:52:59.418Z,14.19
2023-05-01T19:55:32.321Z,14.20
2023-05-01T19:58:05.484Z,14.03
2023-05-01T20:00:38.341Z,13.99
2023-05-01T20:03:11.471Z,13.96
2023-05-01T20:05:44.419Z,13.94
2023-05-01T20:08:18.562Z,13.92
2023-05-01T20:10:51.403Z,13.93
2023-05-01T20:13:24.328Z,13.86
2023-05-01T20:15:57.232Z,13.76
2023-05-01T20:18:30.151Z,13.79
2023-05-01T20:21:02.978Z,13.70
2023-05-01T20:23:37.207Z,13.69
2023-05-01T20:26:10.034Z,13.60
2023-05-01T20:28:42.965Z,13.58
2023-05-01T20:31:15.935Z,13.49
2023-05-01T20:33:48.900Z,13.46
2023-05-01T20:36:23.540Z,13.35
2023-05-01T20:38:58.979Z,13.29
2023-05-01T20:41:31.952Z,13.32
2023-05-01T20:44:05.166Z,13.28
2023-05-01T20:46:38.251Z,13.23
2023-05-01T20:49:15.628Z,13.18
2023-05-01T20:51:48.967Z,13.19
2023-05-01T20:54:23.376Z,13.14
2023-05-01T20:56:56.190Z,13.07
2023-05-01T20:59:29.266Z,13.10
2023-05-01T21:02:04.454Z,13.10
2023-05-01T21:04:38.018Z,13.05
2023-05-01T21:07:11.185Z,12.89
2023-05-01T21:09:46.335Z,12.90
2023-05-01T21:12:19.169Z,12.85
2023-05-01T21:14:52.346Z,12.94
2023-05-01T21:17:26.270Z,12.89
2023-05-01T21:19:59.353Z,12.91
2023-05-01T21:22:32.970Z,12.93
2023-05-01T21:25:10.227Z,12.88
2023-05-01T21:27:43.208Z,12.79
2023-05-01T21:30:21.909Z,12.81
2023-05-01T21:32:54.816Z,12.77
2023-05-01T21:35:29.397Z,12.76
2023-05-01T21:38:02.414Z,12.83
2023-05-01T21:40:39.135Z,12.84
2023-05-01T21:43:11.983Z,12.76
2023-05-01T21:45:45.795Z,12.76
2023-05-01T21:48:20.332Z,12.70
2023-05-01T21:50:53.500Z,12.70
2023-05-01T21:53:28.702Z,12.76
2023-05-01T21:56:03.102Z,12.77
2023-05-01T21:58:36.218Z,12.71
2023-05-01T22:01:10.292Z,12.69
2023-05-01T22:03:44.475Z,12.62
2023-05-01T22:06:17.449Z,12.54
2023-05-01T22:08:51.159Z,12.52
2023-05-01T22:11:26.500Z,12.53
2023-05-01T22:14:01.748Z,12.53
2023-05-01T22:16:34.724Z,12.55
2023-05-01T22:19:08.287Z,12.55
2023-05-01T22:21:41.158Z,12.59
2023-05-01T22:24:13.962Z,12.58
2023-05-01T22:26:50.013Z,12.48
2023-05-01T22:29:22.860Z,12.57
2023-05-01T22:31:56.631Z,12.63
2023-05-01T22:34:29.607Z,12.57
2023-05-01T22:37:02.482Z,12.62
2023-05-01T22:39:36.210Z,12.58
2023-05-01T22:42:10.459Z,12.58
2023-05-01T22:44:43.229Z,12.56
2023-05-01T22:47:16.122Z,12.49
2023-05-01T22:49:48.880Z,12.47
2023-05-01T22:52:21.700Z,12.29
2023-05-01T22:54:55.905Z,12.41
2023-05-01T22:57:30.088Z,12.29
2023-05-01T23:00:03.040Z,12.34
2023-05-01T23:02:36.505Z,12.23
2023-05-01T23:05:11.298Z,12.33
2023-05-01T23:07:43.963Z,12.23
2023-05-01T23:10:16.950Z,12.22
2023-05-01T23:12:51.223Z,12.11
2023-05-01T23:15:25.958Z,12.10
2023-05-01T23:17:58.811Z,12.01
2023-05-01T23:20:31.603Z,12.08
2023-05-01T23:23:10.327Z,12.02
2023-05-01T23:25:46.399Z,12.01
2023-05-01T23:28:25.726Z,11.99
2023-05-01T23:31:00.609Z,12.02
2023-05-01T23:33:36.871Z,12.01
2023-05-01T23:36:12.271Z,11.96
2023-05-01T23:38:45.061Z,11.91
2023-05-01T23:41:18.260Z,11.78
2023-05-01T23:43:52.686Z,11.72
2023-05-01T23:46:25.628Z,11.65
2023-05-01T23:48:58.444Z,11.57
2023-05-01T23:51:31.677Z,11.67
2023-05-01T23:54:05.005Z,11.47
2023-05-01T23:56:37.816Z,11.48
2023-05-01T23:59:12.046Z,11.50
